sensor_id;sensor_type;location;lat;lon;timestamp;pressure;altitude;pressure_sealevel;temperature;humidity
24746;BME280;12845;52.042;6.838;2023-02-19T00:02:19;-18274.34;;;9.15;100.00
24746;BME280;12845;52.042;6.838;2023-02-19T00:04:44;-18274.75;;;9.16;100.00
24746;BME280;12845;52.042;6.838;2023-02-19T00:07:09;-18275.31;;;9.18;100.00
24746;BME280;12845;52.042;6.838;2023-02-19T00:09:34;-18274.47;;;9.15;100.00
24746;BME280;12845;52.042;6.838;2023-02-19T00:11:59;-18274.75;;;9.16;100.00
24746;BME280;12845;52.042;6.838;2023-02-19T00:14:25;-18274.75;;;9.16;100.00
24746;BME280;12845;52.042;6.838;2023-02-19T00:16:50;-18275.03;;;9.17;100.00
24746;BME280;12845;52.042;6.838;2023-02-19T00:19:16;-18274.88;;;9.17;100.00
24746;BME280;12845;52.042;6.838;2023-02-19T00:21:41;-18274.63;;;9.16;100.00
24746;BME280;12845;52.042;6.838;2023-02-19T00:24:08;-18274.75;;;9.16;100.00
24746;BME280;12845;52.042;6.838;2023-02-19T00:26:35;-18274.47;;;9.15;100.00
24746;BME280;12845;52.042;6.838;2023-02-19T00:29:02;-18274.19;;;9.14;100.00
24746;BME280;12845;52.042;6.838;2023-02-19T00:33:54;-18273.94;;;9.13;100.00
24746;BME280;12845;52.042;6.838;2023-02-19T00:36:19;-18274.34;;;9.15;100.00
24746;BME280;12845;52.042;6.838;2023-02-19T00:38:45;-18273.94;;;9.13;100.00
24746;BME280;12845;52.042;6.838;2023-02-19T00:41:11;-18273.38;;;9.11;100.00
24746;BME280;12845;52.042;6.838;2023-02-19T00:43:52;-18273.66;;;9.12;100.00
24746;BME280;12845;52.042;6.838;2023-02-19T00:46:19;-18273.22;;;9.11;100.00
24746;BME280;12845;52.042;6.838;2023-02-19T00:48:45;-18272.81;;;9.09;100.00
24746;BME280;12845;52.042;6.838;2023-02-19T00:51:10;-18272.69;;;9.09;100.00
24746;BME280;12845;52.042;6.838;2023-02-19T00:53:36;-18272.53;;;9.08;100.00
24746;BME280;12845;52.042;6.838;2023-02-19T00:56:01;-18271.72;;;9.05;100.00
24746;BME280;12845;52.042;6.838;2023-02-19T00:58:27;-18271.44;;;9.04;100.00
24746;BME280;12845;52.042;6.838;2023-02-19T01:00:52;-18271.44;;;9.04;100.00
24746;BME280;12845;52.042;6.838;2023-02-19T01:03:17;-18271.72;;;9.05;100.00
24746;BME280;12845;52.042;6.838;2023-02-19T01:05:43;-18271.31;;;9.03;100.00
24746;BME280;12845;52.042;6.838;2023-02-19T01:08:08;-18271.44;;;9.04;100.00
24746;BME280;12845;52.042;6.838;2023-02-19T01:10:33;-18271.31;;;9.03;100.00
24746;BME280;12845;52.042;6.838;2023-02-19T01:12:58;-18270.91;;;9.02;100.00
24746;BME280;12845;52.042;6.838;2023-02-19T01:15:24;-18270.47;;;9.00;100.00
24746;BME280;12845;52.042;6.838;2023-02-19T01:17:49;-18270.22;;;8.99;100.00
24746;BME280;12845;52.042;6.838;2023-02-19T01:20:14;-18269.81;;;8.98;100.00
24746;BME280;12845;52.042;6.838;2023-02-19T01:22:39;-18269.66;;;8.97;100.00
24746;BME280;12845;52.042;6.838;2023-02-19T01:25:05;-18269.81;;;8.98;100.00
24746;BME280;12845;52.042;6.838;2023-02-19T01:27:30;-18269.66;;;8.97;100.00
24746;BME280;12845;52.042;6.838;2023-02-19T01:29:55;-18269.09;;;8.95;100.00
24746;BME280;12845;52.042;6.838;2023-02-19T01:32:20;-18268.97;;;8.95;100.00
24746;BME280;12845;52.042;6.838;2023-02-19T01:34:46;-18268.56;;;8.93;100.00
24746;BME280;12845;52.042;6.838;2023-02-19T01:37:11;-18268.16;;;8.92;100.00
24746;BME280;12845;52.042;6.838;2023-02-19T01:39:37;-18268.00;;;8.91;100.00
24746;BME280;12845;52.042;6.838;2023-02-19T01:42:03;-18267.88;;;8.91;100.00
24746;BME280;12845;52.042;6.838;2023-02-19T01:46:54;-18267.47;;;8.89;100.00
24746;BME280;12845;52.042;6.838;2023-02-19T01:49:31;-18267.31;;;8.89;100.00
24746;BME280;12845;52.042;6.838;2023-02-19T01:52:33;-18267.31;;;8.89;100.00
24746;BME280;12845;52.042;6.838;2023-02-19T01:54:50;-18267.19;;;8.88;100.00
24746;BME280;12845;52.042;6.838;2023-02-19T01:57:21;-18266.78;;;8.87;100.00
24746;BME280;12845;52.042;6.838;2023-02-19T01:59:48;-18266.63;;;8.86;100.00
24746;BME280;12845;52.042;6.838;2023-02-19T02:02:18;-18266.63;;;8.86;100.00
24746;BME280;12845;52.042;6.838;2023-02-19T02:04:44;-18266.50;;;8.86;100.00
24746;BME280;12845;52.042;6.838;2023-02-19T02:07:09;-18265.94;;;8.84;100.00
24746;BME280;12845;52.042;6.838;2023-02-19T02:09:53;-18266.22;;;8.85;100.00
24746;BME280;12845;52.042;6.838;2023-02-19T02:12:37;-18266.22;;;8.85;100.00
24746;BME280;12845;52.042;6.838;2023-02-19T02:15:03;-18265.66;;;8.82;100.00
24746;BME280;12845;52.042;6.838;2023-02-19T02:17:29;-18265.25;;;8.81;100.00
24746;BME280;12845;52.042;6.838;2023-02-19T02:30:28;-18264.56;;;8.78;100.00
24746;BME280;12845;52.042;6.838;2023-02-19T02:35:22;-18264.28;;;8.77;100.00
24746;BME280;12845;52.042;6.838;2023-02-19T02:37:48;-18264.44;;;8.78;100.00
24746;BME280;12845;52.042;6.838;2023-02-19T02:40:13;-18263.88;;;8.76;100.00
24746;BME280;12845;52.042;6.838;2023-02-19T02:42:39;-18263.75;;;8.75;100.00
24746;BME280;12845;52.042;6.838;2023-02-19T02:50:49;-18263.47;;;8.74;100.00
24746;BME280;12845;52.042;6.838;2023-02-19T02:54:03;-18262.91;;;8.72;100.00
24746;BME280;12845;52.042;6.838;2023-02-19T02:56:20;-18262.91;;;8.72;100.00
24746;BME280;12845;52.042;6.838;2023-02-19T02:58:46;-18262.78;;;8.72;100.00
24746;BME280;12845;52.042;6.838;2023-02-19T03:01:15;-18262.09;;;8.69;100.00
24746;BME280;12845;52.042;6.838;2023-02-19T03:04:03;-18261.94;;;8.69;100.00
24746;BME280;12845;52.042;6.838;2023-02-19T03:06:29;-18261.53;;;8.67;100.00
24746;BME280;12845;52.042;6.838;2023-02-19T03:11:31;-18261.41;;;8.67;100.00
24746;BME280;12845;52.042;6.838;2023-02-19T03:14:19;-18261.41;;;8.67;100.00
24746;BME280;12845;52.042;6.838;2023-02-19T03:17:08;-18261.53;;;8.67;100.00
24746;BME280;12845;52.042;6.838;2023-02-19T03:19:53;-18261.41;;;8.67;100.00
24746;BME280;12845;52.042;6.838;2023-02-19T03:22:32;-18261.28;;;8.66;100.00
24746;BME280;12845;52.042;6.838;2023-02-19T03:25:03;-18261.53;;;8.67;100.00
24746;BME280;12845;52.042;6.838;2023-02-19T03:27:48;-18261.28;;;8.66;100.00
24746;BME280;12845;52.042;6.838;2023-02-19T03:30:15;-18261.69;;;8.68;100.00
24746;BME280;12845;52.042;6.838;2023-02-19T03:32:46;-18261.53;;;8.67;100.00
24746;BME280;12845;52.042;6.838;2023-02-19T03:35:20;-18261.41;;;8.67;100.00
24746;BME280;12845;52.042;6.838;2023-02-19T03:37:49;-18261.41;;;8.67;100.00
24746;BME280;12845;52.042;6.838;2023-02-19T03:40:17;-18261.00;;;8.65;100.00
24746;BME280;12845;52.042;6.838;2023-02-19T03:47:44;-18260.16;;;8.62;100.00
24746;BME280;12845;52.042;6.838;2023-02-19T03:50:16;-18259.47;;;8.59;100.00
24746;BME280;12845;52.042;6.838;2023-02-19T03:52:46;-18259.34;;;8.59;100.00
24746;BME280;12845;52.042;6.838;2023-02-19T03:55:17;-18260.44;;;8.63;100.00
24746;BME280;12845;52.042;6.838;2023-02-19T04:02:40;-18259.75;;;8.61;100.00
24746;BME280;12845;52.042;6.838;2023-02-19T04:05:11;-18259.63;;;8.60;100.00
24746;BME280;12845;52.042;6.838;2023-02-19T04:07:38;-18258.94;;;8.57;100.00
24746;BME280;12845;52.042;6.838;2023-02-19T04:10:05;-18258.78;;;8.57;100.00
24746;BME280;12845;52.042;6.838;2023-02-19T04:12:32;-18258.66;;;8.56;100.00
24746;BME280;12845;52.042;6.838;2023-02-19T04:15:01;-18257.97;;;8.54;100.00
24746;BME280;12845;52.042;6.838;2023-02-19T04:17:33;-18257.28;;;8.51;100.00
24746;BME280;12845;52.042;6.838;2023-02-19T04:20:00;-18257.41;;;8.52;100.00
24746;BME280;12845;52.042;6.838;2023-02-19T04:22:27;-18257.41;;;8.52;100.00
24746;BME280;12845;52.042;6.838;2023-02-19T04:24:53;-18257.13;;;8.51;100.00
24746;BME280;12845;52.042;6.838;2023-02-19T04:27:19;-18256.59;;;8.49;100.00
24746;BME280;12845;52.042;6.838;2023-02-19T04:29:44;-18256.88;;;8.50;100.00
24746;BME280;12845;52.042;6.838;2023-02-19T04:32:10;-18256.44;;;8.48;100.00
24746;BME280;12845;52.042;6.838;2023-02-19T04:34:35;-18256.03;;;8.47;100.00
24746;BME280;12845;52.042;6.838;2023-02-19T04:37:00;-18256.03;;;8.47;100.00
24746;BME280;12845;52.042;6.838;2023-02-19T04:39:25;-18255.47;;;8.45;100.00
24746;BME280;12845;52.042;6.838;2023-02-19T04:41:51;-18255.91;;;8.46;100.00
24746;BME280;12845;52.042;6.838;2023-02-19T04:44:16;-18255.63;;;8.45;100.00
24746;BME280;12845;52.042;6.838;2023-02-19T04:46:41;-18256.03;;;8.47;100.00
24746;BME280;12845;52.042;6.838;2023-02-19T04:49:06;-18255.91;;;8.46;100.00
24746;BME280;12845;52.042;6.838;2023-02-19T04:51:32;-18255.75;;;8.46;100.00
24746;BME280;12845;52.042;6.838;2023-02-19T04:53:57;-18255.75;;;8.46;100.00
24746;BME280;12845;52.042;6.838;2023-02-19T04:56:22;-18255.75;;;8.46;100.00
24746;BME280;12845;52.042;6.838;2023-02-19T04:58:47;-18255.22;;;8.44;100.00
24746;BME280;12845;52.042;6.838;2023-02-19T05:01:13;-18255.34;;;8.44;100.00
24746;BME280;12845;52.042;6.838;2023-02-19T05:03:39;-18255.22;;;8.44;100.00
24746;BME280;12845;52.042;6.838;2023-02-19T05:06:05;-18255.34;;;8.44;100.00
24746;BME280;12845;52.042;6.838;2023-02-19T05:08:31;-18255.06;;;8.43;100.00
24746;BME280;12845;52.042;6.838;2023-02-19T05:10:57;-18255.22;;;8.44;100.00
24746;BME280;12845;52.042;6.838;2023-02-19T05:13:23;-18254.94;;;8.43;100.00
24746;BME280;12845;52.042;6.838;2023-02-19T05:16:08;-18254.94;;;8.43;100.00
24746;BME280;12845;52.042;6.838;2023-02-19T05:18:34;-18254.78;;;8.42;100.00
24746;BME280;12845;52.042;6.838;2023-02-19T05:20:59;-18254.66;;;8.42;100.00
24746;BME280;12845;52.042;6.838;2023-02-19T05:23:24;-18254.38;;;8.41;100.00
24746;BME280;12845;52.042;6.838;2023-02-19T05:25:50;-18254.53;;;8.41;100.00
24746;BME280;12845;52.042;6.838;2023-02-19T05:28:15;-18254.09;;;8.40;100.00
24746;BME280;12845;52.042;6.838;2023-02-19T05:30:41;-18253.69;;;8.38;100.00
24746;BME280;12845;52.042;6.838;2023-02-19T05:33:06;-18253.56;;;8.38;100.00
24746;BME280;12845;52.042;6.838;2023-02-19T05:35:32;-18253.84;;;8.39;100.00
24746;BME280;12845;52.042;6.838;2023-02-19T05:37:57;-18253.56;;;8.38;100.00
24746;BME280;12845;52.042;6.838;2023-02-19T05:40:22;-18253.56;;;8.38;100.00
24746;BME280;12845;52.042;6.838;2023-02-19T05:42:47;-18253.13;;;8.36;100.00
24746;BME280;12845;52.042;6.838;2023-02-19T05:45:13;-18253.28;;;8.36;100.00
24746;BME280;12845;52.042;6.838;2023-02-19T05:47:38;-18253.00;;;8.35;100.00
24746;BME280;12845;52.042;6.838;2023-02-19T05:50:03;-18252.88;;;8.35;100.00
24746;BME280;12845;52.042;6.838;2023-02-19T05:52:28;-18252.72;;;8.34;100.00
24746;BME280;12845;52.042;6.838;2023-02-19T05:54:54;-18252.59;;;8.34;100.00
24746;BME280;12845;52.042;6.838;2023-02-19T05:57:19;-18252.03;;;8.32;100.00
24746;BME280;12845;52.042;6.838;2023-02-19T05:59:45;-18251.50;;;8.30;100.00
24746;BME280;12845;52.042;6.838;2023-02-19T06:02:10;-18251.75;;;8.31;100.00
24746;BME280;12845;52.042;6.838;2023-02-19T06:04:35;-18251.50;;;8.30;100.00
24746;BME280;12845;52.042;6.838;2023-02-19T06:07:01;-18251.75;;;8.31;100.00
24746;BME280;12845;52.042;6.838;2023-02-19T06:09:26;-18251.22;;;8.29;100.00
24746;BME280;12845;52.042;6.838;2023-02-19T06:11:51;-18251.06;;;8.28;100.00
24746;BME280;12845;52.042;6.838;2023-02-19T06:14:16;-18250.53;;;8.26;100.00
24746;BME280;12845;52.042;6.838;2023-02-19T06:16:42;-18249.97;;;8.24;100.00
24746;BME280;12845;52.042;6.838;2023-02-19T06:19:07;-18249.69;;;8.23;100.00
24746;BME280;12845;52.042;6.838;2023-02-19T06:21:32;-18249.69;;;8.23;100.00
24746;BME280;12845;52.042;6.838;2023-02-19T06:23:58;-18249.16;;;8.21;100.00
24746;BME280;12845;52.042;6.838;2023-02-19T06:26:23;-18249.00;;;8.21;100.00
24746;BME280;12845;52.042;6.838;2023-02-19T06:28:49;-18248.31;;;8.18;100.00
24746;BME280;12845;52.042;6.838;2023-02-19T06:31:15;-18248.59;;;8.19;100.00
24746;BME280;12845;52.042;6.838;2023-02-19T06:33:40;-18248.03;;;8.17;100.00
24746;BME280;12845;52.042;6.838;2023-02-19T06:36:06;-18247.78;;;8.16;100.00
24746;BME280;12845;52.042;6.838;2023-02-19T06:38:32;-18247.78;;;8.16;100.00
24746;BME280;12845;52.042;6.838;2023-02-19T06:41:01;-18247.34;;;8.14;100.00
24746;BME280;12845;52.042;6.838;2023-02-19T06:43:27;-18247.34;;;8.14;100.00
24746;BME280;12845;52.042;6.838;2023-02-19T06:45:52;-18246.94;;;8.13;100.00
24746;BME280;12845;52.042;6.838;2023-02-19T06:48:17;-18246.94;;;8.13;100.00
24746;BME280;12845;52.042;6.838;2023-02-19T06:50:43;-18247.22;;;8.14;100.00
24746;BME280;12845;52.042;6.838;2023-02-19T06:53:09;-18246.66;;;8.12;100.00
24746;BME280;12845;52.042;6.838;2023-02-19T06:55:35;-18246.38;;;8.11;100.00
24746;BME280;12845;52.042;6.838;2023-02-19T06:58:00;-18245.69;;;8.08;100.00
24746;BME280;12845;52.042;6.838;2023-02-19T07:00:26;-18245.56;;;8.08;100.00
24746;BME280;12845;52.042;6.838;2023-02-19T07:02:51;-18245.44;;;8.07;100.00
24746;BME280;12845;52.042;6.838;2023-02-19T07:05:20;-18245.03;;;8.06;100.00
24746;BME280;12845;52.042;6.838;2023-02-19T07:07:45;-18245.16;;;8.06;100.00
24746;BME280;12845;52.042;6.838;2023-02-19T07:10:11;-18245.03;;;8.06;100.00
24746;BME280;12845;52.042;6.838;2023-02-19T07:12:36;-18244.75;;;8.05;100.00
24746;BME280;12845;52.042;6.838;2023-02-19T07:15:08;-18244.88;;;8.05;100.00
24746;BME280;12845;52.042;6.838;2023-02-19T07:17:39;-18244.75;;;8.05;100.00
24746;BME280;12845;52.042;6.838;2023-02-19T07:20:04;-18244.47;;;8.04;100.00
24746;BME280;12845;52.042;6.838;2023-02-19T07:22:29;-18244.31;;;8.03;100.00
24746;BME280;12845;52.042;6.838;2023-02-19T07:24:55;-18244.47;;;8.04;100.00
24746;BME280;12845;52.042;6.838;2023-02-19T07:27:20;-18244.31;;;8.03;100.00
24746;BME280;12845;52.042;6.838;2023-02-19T07:29:45;-18244.59;;;8.04;100.00
24746;BME280;12845;52.042;6.838;2023-02-19T07:32:11;-18245.03;;;8.06;100.00
24746;BME280;12845;52.042;6.838;2023-02-19T07:34:36;-18244.88;;;8.05;100.00
24746;BME280;12845;52.042;6.838;2023-02-19T07:37:01;-18244.06;;;8.02;100.00
24746;BME280;12845;52.042;6.838;2023-02-19T07:39:27;-18243.50;;;8.00;100.00
24746;BME280;12845;52.042;6.838;2023-02-19T07:41:52;-18243.50;;;8.00;100.00
24746;BME280;12845;52.042;6.838;2023-02-19T07:44:17;-18243.50;;;8.00;100.00
24746;BME280;12845;52.042;6.838;2023-02-19T07:46:42;-18243.38;;;8.00;100.00
24746;BME280;12845;52.042;6.838;2023-02-19T07:49:08;-18243.09;;;7.99;100.00
24746;BME280;12845;52.042;6.838;2023-02-19T07:51:33;-18242.94;;;7.98;100.00
24746;BME280;12845;52.042;6.838;2023-02-19T07:53:58;-18243.50;;;8.00;100.00
24746;BME280;12845;52.042;6.838;2023-02-19T07:56:23;-18243.22;;;7.99;100.00
24746;BME280;12845;52.042;6.838;2023-02-19T07:58:49;-18242.94;;;7.98;100.00
24746;BME280;12845;52.042;6.838;2023-02-19T08:01:18;-18242.81;;;7.98;100.00
24746;BME280;12845;52.042;6.838;2023-02-19T08:04:04;-18242.81;;;7.98;100.00
24746;BME280;12845;52.042;6.838;2023-02-19T08:06:29;-18242.81;;;7.98;100.00
24746;BME280;12845;52.042;6.838;2023-02-19T08:08:54;-18242.81;;;7.98;100.00
24746;BME280;12845;52.042;6.838;2023-02-19T08:11:21;-18243.63;;;8.01;100.00
24746;BME280;12845;52.042;6.838;2023-02-19T08:14:05;-18242.94;;;7.98;100.00
24746;BME280;12845;52.042;6.838;2023-02-19T08:16:30;-18243.09;;;7.99;100.00
24746;BME280;12845;52.042;6.838;2023-02-19T08:18:55;-18243.09;;;7.99;100.00
24746;BME280;12845;52.042;6.838;2023-02-19T08:21:20;-18242.94;;;7.98;100.00
24746;BME280;12845;52.042;6.838;2023-02-19T08:23:46;-18243.22;;;7.99;100.00
24746;BME280;12845;52.042;6.838;2023-02-19T08:26:11;-18242.81;;;7.98;100.00
24746;BME280;12845;52.042;6.838;2023-02-19T08:28:37;-18243.09;;;7.99;100.00
24746;BME280;12845;52.042;6.838;2023-02-19T08:31:03;-18242.53;;;7.97;100.00
24746;BME280;12845;52.042;6.838;2023-02-19T08:33:29;-18242.00;;;7.95;100.00
24746;BME280;12845;52.042;6.838;2023-02-19T08:35:54;-18241.72;;;7.94;100.00
24746;BME280;12845;52.042;6.838;2023-02-19T08:38:20;-18242.00;;;7.95;100.00
24746;BME280;12845;52.042;6.838;2023-02-19T08:40:45;-18241.56;;;7.93;100.00
24746;BME280;12845;52.042;6.838;2023-02-19T08:43:12;-18241.16;;;7.91;100.00
24746;BME280;12845;52.042;6.838;2023-02-19T08:45:38;-18241.84;;;7.94;100.00
24746;BME280;12845;52.042;6.838;2023-02-19T08:48:04;-18241.44;;;7.93;100.00
24746;BME280;12845;52.042;6.838;2023-02-19T08:50:29;-18241.72;;;7.94;100.00
24746;BME280;12845;52.042;6.838;2023-02-19T08:52:55;-18242.00;;;7.95;100.00
24746;BME280;12845;52.042;6.838;2023-02-19T08:55:20;-18241.44;;;7.93;100.00
24746;BME280;12845;52.042;6.838;2023-02-19T08:57:45;-18241.44;;;7.93;100.00
24746;BME280;12845;52.042;6.838;2023-02-19T09:00:11;-18241.16;;;7.91;100.00
24746;BME280;12845;52.042;6.838;2023-02-19T09:02:36;-18240.34;;;7.88;100.00
24746;BME280;12845;52.042;6.838;2023-02-19T09:05:02;-18237.16;;;7.77;100.00
24746;BME280;12845;52.042;6.838;2023-02-19T09:07:27;-18236.34;;;7.74;100.00
24746;BME280;12845;52.042;6.838;2023-02-19T09:09:52;-18230.56;;;7.52;100.00
24746;BME280;12845;52.042;6.838;2023-02-19T09:12:18;-18218.97;;;7.09;100.00
24746;BME280;12845;52.042;6.838;2023-02-19T09:14:43;-18216.38;;;6.99;100.00
24746;BME280;12845;52.042;6.838;2023-02-19T09:17:08;-18215.94;;;6.98;100.00
24746;BME280;12845;52.042;6.838;2023-02-19T09:19:34;-18212.66;;;6.86;100.00
24746;BME280;12845;52.042;6.838;2023-02-19T09:21:59;-18206.72;;;6.64;100.00
24746;BME280;12845;52.042;6.838;2023-02-19T09:24:25;-18206.72;;;6.64;100.00
24746;BME280;12845;52.042;6.838;2023-02-19T09:26:51;-18205.75;;;6.60;100.00
24746;BME280;12845;52.042;6.838;2023-02-19T09:29:17;-18206.72;;;6.64;100.00
24746;BME280;12845;52.042;6.838;2023-02-19T09:31:42;-18205.06;;;6.58;100.00
24746;BME280;12845;52.042;6.838;2023-02-19T09:34:07;-18207.13;;;6.65;100.00
24746;BME280;12845;52.042;6.838;2023-02-19T09:36:33;-18211.94;;;6.83;100.00
24746;BME280;12845;52.042;6.838;2023-02-19T09:38:58;-18211.94;;;6.83;100.00
24746;BME280;12845;52.042;6.838;2023-02-19T09:43:50;-18207.53;;;6.67;100.00
24746;BME280;12845;52.042;6.838;2023-02-19T09:48:53;-18208.66;;;6.71;100.00
24746;BME280;12845;52.042;6.838;2023-02-19T09:51:19;-18208.38;;;6.70;100.00
24746;BME280;12845;52.042;6.838;2023-02-19T09:53:46;-18207.41;;;6.66;100.00
24746;BME280;12845;52.042;6.838;2023-02-19T09:56:14;-18205.88;;;6.61;100.00
24746;BME280;12845;52.042;6.838;2023-02-19T09:58:42;-18204.78;;;6.57;100.00
24746;BME280;12845;52.042;6.838;2023-02-19T10:01:10;-18205.63;;;6.60;100.00
24746;BME280;12845;52.042;6.838;2023-02-19T10:03:36;-18204.50;;;6.55;100.00
24746;BME280;12845;52.042;6.838;2023-02-19T10:06:06;-18204.09;;;6.54;100.00
24746;BME280;12845;52.042;6.838;2023-02-19T10:08:42;-18204.22;;;6.54;100.00
24746;BME280;12845;52.042;6.838;2023-02-19T10:11:11;-18203.41;;;6.51;100.00
24746;BME280;12845;52.042;6.838;2023-02-19T10:13:40;-18206.72;;;6.64;100.00
24746;BME280;12845;52.042;6.838;2023-02-19T10:16:06;-18207.28;;;6.66;100.00
24746;BME280;12845;52.042;6.838;2023-02-19T10:18:37;-18207.00;;;6.65;100.00
24746;BME280;12845;52.042;6.838;2023-02-19T10:21:04;-18204.22;;;6.54;100.00
24746;BME280;12845;52.042;6.838;2023-02-19T10:23:29;-18204.50;;;6.55;100.00
24746;BME280;12845;52.042;6.838;2023-02-19T10:25:55;-18206.72;;;6.64;100.00
24746;BME280;12845;52.042;6.838;2023-02-19T10:28:25;-18210.31;;;6.77;100.00
24746;BME280;12845;52.042;6.838;2023-02-19T10:30:56;-18209.75;;;6.75;100.00
24746;BME280;12845;52.042;6.838;2023-02-19T10:33:22;-18210.03;;;6.76;100.00
24746;BME280;12845;52.042;6.838;2023-02-19T10:38:16;-18212.50;;;6.85;100.00
24746;BME280;12845;52.042;6.838;2023-02-19T10:40:44;-18213.19;;;6.88;100.00
24746;BME280;12845;52.042;6.838;2023-02-19T10:43:17;-18216.91;;;7.01;100.00
24746;BME280;12845;52.042;6.838;2023-02-19T10:45:46;-18216.91;;;7.01;100.00
24746;BME280;12845;52.042;6.838;2023-02-19T10:48:28;-18213.75;;;6.90;100.00
24746;BME280;12845;52.042;6.838;2023-02-19T10:50:55;-18213.59;;;6.89;100.00
24746;BME280;12845;52.042;6.838;2023-02-19T10:53:34;-18214.44;;;6.92;100.00
24746;BME280;12845;52.042;6.838;2023-02-19T10:56:11;-18211.41;;;6.81;100.00
24746;BME280;12845;52.042;6.838;2023-02-19T10:58:37;-18209.88;;;6.75;100.00
24746;BME280;12845;52.042;6.838;2023-02-19T11:03:43;-18213.06;;;6.87;100.00
24746;BME280;12845;52.042;6.838;2023-02-19T11:06:09;-18208.66;;;6.71;100.00
24746;BME280;12845;52.042;6.838;2023-02-19T11:13:58;-18213.06;;;6.87;100.00
24746;BME280;12845;52.042;6.838;2023-02-19T11:16:35;-18212.22;;;6.84;100.00
24746;BME280;12845;52.042;6.838;2023-02-19T11:21:50;-18217.06;;;7.02;100.00
24746;BME280;12845;52.042;6.838;2023-02-19T11:24:20;-18214.03;;;6.91;100.00
24746;BME280;12845;52.042;6.838;2023-02-19T11:26:46;-18214.44;;;6.92;100.00
24746;BME280;12845;52.042;6.838;2023-02-19T11:29:16;-18212.38;;;6.85;100.00
24746;BME280;12845;52.042;6.838;2023-02-19T11:31:43;-18211.94;;;6.83;100.00
24746;BME280;12845;52.042;6.838;2023-02-19T11:36:38;-18209.19;;;6.73;100.00
24746;BME280;12845;52.042;6.838;2023-02-19T11:41:41;-18206.84;;;6.64;100.00
24746;BME280;12845;52.042;6.838;2023-02-19T11:44:18;-18208.38;;;6.70;100.00
24746;BME280;12845;52.042;6.838;2023-02-19T11:49:21;-18211.53;;;6.82;100.00
24746;BME280;12845;52.042;6.838;2023-02-19T11:51:56;-18206.16;;;6.62;100.00
24746;BME280;12845;52.042;6.838;2023-02-19T11:57:05;-18212.22;;;6.84;100.00
24746;BME280;12845;52.042;6.838;2023-02-19T11:59:53;-18216.09;;;6.98;100.00
24746;BME280;12845;52.042;6.838;2023-02-19T12:02:37;-18218.03;;;7.06;100.00
24746;BME280;12845;52.042;6.838;2023-02-19T12:05:17;-18218.28;;;7.07;100.00
24746;BME280;12845;52.042;6.838;2023-02-19T12:08:27;-18220.38;;;7.14;100.00
24746;BME280;12845;52.042;6.838;2023-02-19T12:10:47;-18215.25;;;6.95;100.00
24746;BME280;12845;52.042;6.838;2023-02-19T12:13:34;-18219.66;;;7.12;100.00
24746;BME280;12845;52.042;6.838;2023-02-19T12:16:07;-18218.56;;;7.08;100.00
24746;BME280;12845;52.042;6.838;2023-02-19T12:18:39;-18220.50;;;7.15;100.00
24746;BME280;12845;52.042;6.838;2023-02-19T12:24:05;-18217.88;;;7.05;100.00
24746;BME280;12845;52.042;6.838;2023-02-19T12:27:18;-18215.13;;;6.95;100.00
24746;BME280;12845;52.042;6.838;2023-02-19T12:34:34;-18217.47;;;7.04;100.00
24746;BME280;12845;52.042;6.838;2023-02-19T12:37:51;-18216.38;;;6.99;100.00
24746;BME280;12845;52.042;6.838;2023-02-19T12:45:01;-18216.91;;;7.01;100.00
24746;BME280;12845;52.042;6.838;2023-02-19T12:47:31;-18214.72;;;6.93;100.00
24746;BME280;12845;52.042;6.838;2023-02-19T12:50:01;-18217.19;;;7.03;100.00
24746;BME280;12845;52.042;6.838;2023-02-19T12:52:30;-18220.78;;;7.16;100.00
24746;BME280;12845;52.042;6.838;2023-02-19T12:55:01;-18217.19;;;7.03;100.00
24746;BME280;12845;52.042;6.838;2023-02-19T12:57:30;-18223.13;;;7.24;100.00
24746;BME280;12845;52.042;6.838;2023-02-19T13:02:43;-18221.88;;;7.20;100.00
24746;BME280;12845;52.042;6.838;2023-02-19T13:10:26;-18220.38;;;7.14;100.00
24746;BME280;12845;52.042;6.838;2023-02-19T13:12:54;-18222.69;;;7.23;100.00
24746;BME280;12845;52.042;6.838;2023-02-19T13:15:41;-18223.25;;;7.25;100.00
24746;BME280;12845;52.042;6.838;2023-02-19T13:18:17;-18222.97;;;7.24;100.00
24746;BME280;12845;52.042;6.838;2023-02-19T13:20:43;-18220.50;;;7.15;100.00
24746;BME280;12845;52.042;6.838;2023-02-19T13:28:41;-18225.47;;;7.33;100.00
24746;BME280;12845;52.042;6.838;2023-02-19T13:36:36;-18225.47;;;7.33;100.00
24746;BME280;12845;52.042;6.838;2023-02-19T13:39:05;-18228.75;;;7.45;100.00
24746;BME280;12845;52.042;6.838;2023-02-19T13:41:33;-18226.28;;;7.36;100.00
24746;BME280;12845;52.042;6.838;2023-02-19T13:44:03;-18226.16;;;7.36;100.00
24746;BME280;12845;52.042;6.838;2023-02-19T13:46:37;-18226.28;;;7.36;100.00
24746;BME280;12845;52.042;6.838;2023-02-19T13:49:22;-18226.00;;;7.35;100.00
24746;BME280;12845;52.042;6.838;2023-02-19T13:51:51;-18228.06;;;7.43;100.00
24746;BME280;12845;52.042;6.838;2023-02-19T13:54:21;-18227.13;;;7.39;100.00
24746;BME280;12845;52.042;6.838;2023-02-19T13:56:47;-18226.56;;;7.37;100.00
24746;BME280;12845;52.042;6.838;2023-02-19T14:09:45;-18222.16;;;7.21;100.00
24746;BME280;12845;52.042;6.838;2023-02-19T14:14:53;-18223.94;;;7.28;100.00
24746;BME280;12845;52.042;6.838;2023-02-19T14:20:00;-18222.28;;;7.21;100.00
24746;BME280;12845;52.042;6.838;2023-02-19T14:27:38;-18225.72;;;7.34;100.00
24746;BME280;12845;52.042;6.838;2023-02-19T14:30:03;-18225.59;;;7.34;100.00
24746;BME280;12845;52.042;6.838;2023-02-19T14:32:29;-18227.94;;;7.42;100.00
24746;BME280;12845;52.042;6.838;2023-02-19T14:34:54;-18226.56;;;7.37;100.00
24746;BME280;12845;52.042;6.838;2023-02-19T14:37:22;-18223.53;;;7.26;100.00
24746;BME280;12845;52.042;6.838;2023-02-19T14:39:49;-18225.19;;;7.32;100.00
24746;BME280;12845;52.042;6.838;2023-02-19T14:42:17;-18223.94;;;7.28;100.00
24746;BME280;12845;52.042;6.838;2023-02-19T14:47:18;-18222.84;;;7.23;100.00
24746;BME280;12845;52.042;6.838;2023-02-19T14:49:48;-18220.50;;;7.15;100.00
24746;BME280;12845;52.042;6.838;2023-02-19T14:52:16;-18221.47;;;7.18;100.00
24746;BME280;12845;52.042;6.838;2023-02-19T14:54:56;-18223.94;;;7.28;100.00
24746;BME280;12845;52.042;6.838;2023-02-19T14:57:24;-18221.59;;;7.19;100.00